Temp: 17.4°C   Baro: 1015.3mb
  Wind: 16.1mph   Dir: W (281°)
  Rain: 9.6mm (0.0mm/hr)
  Solar: 773W/m2  Hum: 68%
 
Bath Spa Weather Historical Data
Daily Summary for August 14, 2019 Units:  Both    English   Metric
Next Day »
Daily Weekly Monthly Yearly Custom
  High: Low: Average:
Temperature: 63.9 °F /  17.7 °C 55.4 °F /  13.0 °C 59.4 °F /  15.2 °C
Dew Point: 61.5 °F /  16.4 °C 52.2 °F /  11.2 °C 56.7 °F /  13.7 °C
Humidity: 94% 84% 91%
Wind Speed: 19mph /  30.6km/h - 4.5mph /  7.2km/h
Wind Gust: 19mph /  30.6km/h - -
Wind direction- - SW
Pressure: 30 in /  1016.5 hPa 29.7 in /  1007.0 hPa -
Precipitation: 0.35 in /  8.9 mm    
Historical Graphs
 
 
Tabular Data for August 14, 2019
Time Temperature Dew Point Pressure Wind direction Wind Speed Wind Gust Humidity Rainfall Rate (Hourly) solar
00:00 57 °F /  13.9 °C 52.2 °F /  11.2 °C 30in /  1016.5hPa Calm     84% 0in /  0.0mm 0.00 W/m2
00:05 57.2 °F /  14.0 °C 52.3 °F /  11.3 °C 30in /  1016.5hPa Calm     84% 0in /  0.0mm 0.00 W/m2
00:10 57.2 °F /  14.0 °C 52.3 °F /  11.3 °C 30in /  1016.5hPa Calm     84% 0in /  0.0mm 0.00 W/m2
00:15 57 °F /  13.9 °C 52.2 °F /  11.2 °C 30in /  1016.5hPa Calm     84% 0in /  0.0mm 0.00 W/m2
00:20 57 °F /  13.9 °C 52.2 °F /  11.2 °C 30in /  1016.5hPa Calm     84% 0in /  0.0mm 0.00 W/m2
00:25 57 °F /  13.9 °C 52.5 °F /  11.4 °C 30in /  1016.5hPa Calm     85% 0in /  0.0mm 0.00 W/m2
00:30 56.8 °F /  13.8 °C 52.3 °F /  11.3 °C 30in /  1016.5hPa Calm     85% 0in /  0.0mm 0.00 W/m2
00:35 56.8 °F /  13.8 °C 52.3 °F /  11.3 °C 30in /  1016.5hPa Calm     85% 0in /  0.0mm 0.00 W/m2
00:40 56.8 °F /  13.8 °C 52.3 °F /  11.3 °C 30in /  1016.5hPa Calm     85% 0in /  0.0mm 0.00 W/m2
00:45 57 °F /  13.9 °C 52.5 °F /  11.4 °C 30in /  1016.5hPa Calm   2mph /  3.2km/h 85% 0in /  0.0mm 0.00 W/m2
00:50 57 °F /  13.9 °C 52.5 °F /  11.4 °C 30in /  1016.5hPa Calm   1mph /  1.6km/h 85% 0in /  0.0mm 0.00 W/m2
00:55 57 °F /  13.9 °C 52.5 °F /  11.4 °C 30in /  1016.5hPa Calm   3mph /  4.8km/h 85% 0in /  0.0mm 0.00 W/m2
01:00 57 °F /  13.9 °C 52.5 °F /  11.4 °C 30in /  1016.5hPa WSW 0.9mph /  1.4km/h 1mph /  1.6km/h 85% 0in /  0.0mm 0.00 W/m2
01:05 57 °F /  13.9 °C 52.5 °F /  11.4 °C 30in /  1016.5hPa Calm   2mph /  3.2km/h 85% 0in /  0.0mm 0.00 W/m2
01:10 57.2 °F /  14.0 °C 52.7 °F /  11.5 °C 30in /  1016.5hPa Calm   4mph /  6.4km/h 85% 0in /  0.0mm 0.00 W/m2
01:15 57.4 °F /  14.1 °C 52.9 °F /  11.6 °C 30in /  1016.5hPa Calm   6mph /  9.7km/h 85% 0in /  0.0mm 0.00 W/m2
01:20 57.6 °F /  14.2 °C 53.1 °F /  11.7 °C 30in /  1016.5hPa Calm   1mph /  1.6km/h 85% 0in /  0.0mm 0.00 W/m2
01:25 57.6 °F /  14.2 °C 53.1 °F /  11.7 °C 30in /  1016.1hPa SW 2mph /  3.2km/h 3mph /  4.8km/h 85% 0in /  0.0mm 0.00 W/m2
01:30 57.6 °F /  14.2 °C 53.1 °F /  11.7 °C 30in /  1016.1hPa Calm   2mph /  3.2km/h 85% 0in /  0.0mm 0.00 W/m2
01:35 57.6 °F /  14.2 °C 53.1 °F /  11.7 °C 30in /  1016.1hPa Calm   2mph /  3.2km/h 85% 0in /  0.0mm 0.00 W/m2
01:40 57.6 °F /  14.2 °C 53.1 °F /  11.7 °C 30in /  1016.1hPa Calm   3mph /  4.8km/h 85% 0in /  0.0mm 0.00 W/m2
01:45 57.6 °F /  14.2 °C 53.1 °F /  11.7 °C 30in /  1016.1hPa Calm   4mph /  6.4km/h 85% 0in /  0.0mm 0.00 W/m2
01:50 57.6 °F /  14.2 °C 53.1 °F /  11.7 °C 30in /  1016.1hPa Calm   1mph /  1.6km/h 85% 0in /  0.0mm 0.00 W/m2
01:55 57.4 °F /  14.1 °C 52.9 °F /  11.6 °C 30in /  1016.1hPa Calm     85% 0in /  0.0mm 0.00 W/m2
02:00 57.2 °F /  14.0 °C 52.7 °F /  11.5 °C 30in /  1016.1hPa Calm     85% 0in /  0.0mm 0.00 W/m2
02:05 57.2 °F /  14.0 °C 53.1 °F /  11.7 °C 30in /  1016.1hPa Calm   1mph /  1.6km/h 86% 0in /  0.0mm 0.00 W/m2
02:10 57 °F /  13.9 °C 52.9 °F /  11.6 °C 30in /  1015.8hPa SW 0.9mph /  1.4km/h 3mph /  4.8km/h 86% 0in /  0.0mm 0.00 W/m2
02:15 57.2 °F /  14.0 °C 53.1 °F /  11.7 °C 30in /  1015.8hPa Calm     86% 0in /  0.0mm 0.00 W/m2
02:20 57.2 °F /  14.0 °C 53.1 °F /  11.7 °C 30in /  1015.8hPa SW 2mph /  3.2km/h 5mph /  8.0km/h 86% 0in /  0.0mm 0.00 W/m2
02:25 57.4 °F /  14.1 °C 53.6 °F /  12.0 °C 30in /  1015.8hPa SW 0.9mph /  1.4km/h 2mph /  3.2km/h 87% 0in /  0.0mm 0.00 W/m2
02:30 57.6 °F /  14.2 °C 53.8 °F /  12.1 °C 30in /  1015.8hPa SW 6mph /  9.7km/h 6mph /  9.7km/h 87% 0in /  0.0mm 0.00 W/m2
02:35 57.6 °F /  14.2 °C 53.8 °F /  12.1 °C 30in /  1015.8hPa SSW 2mph /  3.2km/h 4mph /  6.4km/h 87% 0in /  0.0mm 0.00 W/m2
02:40 57.7 °F /  14.3 °C 54 °F /  12.2 °C 30in /  1015.5hPa Calm   1mph /  1.6km/h 87% 0in /  0.0mm 0.00 W/m2
02:45 57.7 °F /  14.3 °C 54 °F /  12.2 °C 30in /  1015.5hPa SSW 2mph /  3.2km/h 6mph /  9.7km/h 87% 0in /  0.0mm 0.00 W/m2
02:50 57.7 °F /  14.3 °C 54 °F /  12.2 °C 30in /  1015.5hPa SSW 4mph /  6.4km/h 6mph /  9.7km/h 87% 0in /  0.0mm 0.00 W/m2
02:55 57.7 °F /  14.3 °C 54 °F /  12.2 °C 30in /  1015.5hPa SW 0.9mph /  1.4km/h 4mph /  6.4km/h 87% 0in /  0.0mm 0.00 W/m2
03:00 57.6 °F /  14.2 °C 53.8 °F /  12.1 °C 30in /  1015.5hPa Calm   2mph /  3.2km/h 87% 0in /  0.0mm 0.00 W/m2
03:05 57.6 °F /  14.2 °C 53.8 °F /  12.1 °C 30in /  1015.5hPa Calm   1mph /  1.6km/h 87% 0in /  0.0mm 0.00 W/m2
03:10 57.6 °F /  14.2 °C 53.8 °F /  12.1 °C 30in /  1015.5hPa SW 0.9mph /  1.4km/h 2mph /  3.2km/h 87% 0in /  0.0mm 0.00 W/m2
03:15 57.4 °F /  14.1 °C 53.6 °F /  12.0 °C 30in /  1015.5hPa Calm   2mph /  3.2km/h 87% 0in /  0.0mm 0.00 W/m2
03:20 57.4 °F /  14.1 °C 53.6 °F /  12.0 °C 30in /  1015.1hPa Calm     87% 0in /  0.0mm 0.00 W/m2
03:25 57.4 °F /  14.1 °C 53.6 °F /  12.0 °C 30in /  1015.1hPa Calm   1mph /  1.6km/h 87% 0in /  0.0mm 0.00 W/m2
03:30 57.2 °F /  14.0 °C 53.4 °F /  11.9 °C 30in /  1015.1hPa Calm     87% 0in /  0.0mm 0.00 W/m2
03:35 57.4 °F /  14.1 °C 53.8 °F /  12.1 °C 30in /  1015.1hPa Calm   2mph /  3.2km/h 88% 0in /  0.0mm 0.00 W/m2
03:40 57.2 °F /  14.0 °C 53.6 °F /  12.0 °C 30in /  1015.1hPa Calm     88% 0in /  0.0mm 0.00 W/m2
03:45 57.4 °F /  14.1 °C 53.8 °F /  12.1 °C 30in /  1015.1hPa SW 2mph /  3.2km/h 2mph /  3.2km/h 88% 0in /  0.0mm 0.00 W/m2
03:50 57.4 °F /  14.1 °C 53.8 °F /  12.1 °C 30in /  1014.8hPa Calm   2mph /  3.2km/h 88% 0in /  0.0mm 0.00 W/m2
03:55 57.6 °F /  14.2 °C 54 °F /  12.2 °C 30in /  1014.8hPa Calm   2mph /  3.2km/h 88% 0in /  0.0mm 0.00 W/m2
04:00 57.4 °F /  14.1 °C 53.8 °F /  12.1 °C 30in /  1014.8hPa SW 0.9mph /  1.4km/h 2mph /  3.2km/h 88% 0in /  0.0mm 0.00 W/m2
04:05 57.4 °F /  14.1 °C 53.8 °F /  12.1 °C 30in /  1014.8hPa Calm     88% 0in /  0.0mm 0.00 W/m2
04:10 57.2 °F /  14.0 °C 53.6 °F /  12.0 °C 30in /  1014.8hPa Calm   1mph /  1.6km/h 88% 0in /  0.0mm 0.00 W/m2
04:15 57.2 °F /  14.0 °C 53.6 °F /  12.0 °C 30in /  1014.8hPa SW 0.9mph /  1.4km/h 3mph /  4.8km/h 88% 0in /  0.0mm 0.00 W/m2
04:20 57.2 °F /  14.0 °C 53.6 °F /  12.0 °C 30in /  1014.4hPa SW 0.9mph /  1.4km/h 2mph /  3.2km/h 88% 0in /  0.0mm 0.00 W/m2
04:25 57.2 °F /  14.0 °C 53.6 °F /  12.0 °C 30in /  1014.4hPa Calm   4mph /  6.4km/h 88% 0in /  0.0mm 0.00 W/m2
04:30 57.2 °F /  14.0 °C 54 °F /  12.2 °C 30in /  1014.4hPa Calm   2mph /  3.2km/h 89% 0in /  0.0mm 0.00 W/m2
04:35 57.2 °F /  14.0 °C 54 °F /  12.2 °C 30in /  1014.4hPa Calm   2mph /  3.2km/h 89% 0in /  0.0mm 0.00 W/m2
04:40 57.2 °F /  14.0 °C 54 °F /  12.2 °C 30in /  1014.4hPa Calm   1mph /  1.6km/h 89% 0in /  0.0mm 0.00 W/m2
04:45 57.2 °F /  14.0 °C 54 °F /  12.2 °C 30in /  1014.4hPa Calm   2mph /  3.2km/h 89% 0in /  0.0mm 0.00 W/m2
04:50 57.2 °F /  14.0 °C 54 °F /  12.2 °C 30in /  1014.4hPa Calm   1mph /  1.6km/h 89% 0in /  0.0mm 0.00 W/m2
04:55 57.2 °F /  14.0 °C 54 °F /  12.2 °C 29.9in /  1014.1hPa Calm   1mph /  1.6km/h 89% 0in /  0.0mm 0.00 W/m2
05:00 57.4 °F /  14.1 °C 54.1 °F /  12.3 °C 29.9in /  1014.1hPa Calm   1mph /  1.6km/h 89% 0in /  0.0mm 0.00 W/m2
05:05 57.4 °F /  14.1 °C 54.1 °F /  12.3 °C 29.9in /  1014.1hPa Calm   1mph /  1.6km/h 89% 0in /  0.0mm 0.00 W/m2
05:10 57.4 °F /  14.1 °C 54.1 °F /  12.3 °C 29.9in /  1014.1hPa Calm   1mph /  1.6km/h 89% 0in /  0.0mm 0.00 W/m2
05:15 57.4 °F /  14.1 °C 54.1 °F /  12.3 °C 29.9in /  1014.1hPa Calm     89% 0.01in /  0.3mm 0.00 W/m2
05:20 57.4 °F /  14.1 °C 54.5 °F /  12.5 °C 29.9in /  1014.1hPa Calm   2mph /  3.2km/h 90% 0.01in /  0.3mm 0.00 W/m2
05:25 57.4 °F /  14.1 °C 54.5 °F /  12.5 °C 29.9in /  1013.8hPa Calm   1mph /  1.6km/h 90% 0.02in /  0.5mm 0.00 W/m2
05:30 57.2 °F /  14.0 °C 54.3 °F /  12.4 °C 29.9in /  1013.8hPa Calm   2mph /  3.2km/h 90% 0.02in /  0.5mm 0.00 W/m2
05:35 57.2 °F /  14.0 °C 54.3 °F /  12.4 °C 29.9in /  1013.8hPa SW 0.9mph /  1.4km/h 2mph /  3.2km/h 90% 0.02in /  0.5mm 0.00 W/m2
05:40 57.2 °F /  14.0 °C 54.3 °F /  12.4 °C 29.9in /  1013.8hPa Calm   4mph /  6.4km/h 90% 0.02in /  0.5mm 0.00 W/m2
05:45 57 °F /  13.9 °C 54.1 °F /  12.3 °C 29.9in /  1013.8hPa Calm   3mph /  4.8km/h 90% 0.04in /  1.0mm 0.00 W/m2
05:50 57 °F /  13.9 °C 54.1 °F /  12.3 °C 29.9in /  1013.8hPa Calm   1mph /  1.6km/h 90% 0.04in /  1.0mm 0.00 W/m2
05:55 57 °F /  13.9 °C 54.5 °F /  12.5 °C 29.9in /  1013.8hPa Calm   1mph /  1.6km/h 91% 0.04in /  1.0mm 0.00 W/m2
06:00 57 °F /  13.9 °C 54.5 °F /  12.5 °C 29.9in /  1013.8hPa SW 2.9mph /  4.7km/h 3mph /  4.8km/h 91% 0.04in /  1.0mm 0.00 W/m2
06:05 57 °F /  13.9 °C 54.5 °F /  12.5 °C 29.9in /  1013.4hPa Calm   3mph /  4.8km/h 91% 0.04in /  1.0mm 0.00 W/m2
06:10 56.8 °F /  13.8 °C 54.3 °F /  12.4 °C 29.9in /  1013.4hPa SSE 2.9mph /  4.7km/h 5mph /  8.0km/h 91% 0.04in /  1.0mm 0.00 W/m2
06:15 56.8 °F /  13.8 °C 54.3 °F /  12.4 °C 29.9in /  1013.4hPa Calm   5mph /  8.0km/h 91% 0.04in /  1.0mm 0.00 W/m2
06:20 56.8 °F /  13.8 °C 54.3 °F /  12.4 °C 29.9in /  1013.4hPa SSE 6.9mph /  11.1km/h 7mph /  11.3km/h 91% 0.04in /  1.0mm 5.00 W/m2
06:25 56.8 °F /  13.8 °C 54.3 °F /  12.4 °C 29.9in /  1013.4hPa SSE 2.9mph /  4.7km/h 8mph /  12.9km/h 91% 0.04in /  1.0mm 0.00 W/m2
06:30 56.8 °F /  13.8 °C 54.3 °F /  12.4 °C 29.9in /  1013.4hPa SSE 4mph /  6.4km/h 7mph /  11.3km/h 91% 0.04in /  1.0mm 0.00 W/m2
06:35 56.8 °F /  13.8 °C 54.5 °F /  12.5 °C 29.9in /  1013.4hPa SSE 4mph /  6.4km/h 5mph /  8.0km/h 92% 0.03in /  0.8mm 5.00 W/m2
06:40 56.7 °F /  13.7 °C 54.3 °F /  12.4 °C 29.9in /  1013.4hPa Calm   4mph /  6.4km/h 92% 0.03in /  0.8mm 7.00 W/m2
06:45 56.8 °F /  13.8 °C 54.5 °F /  12.5 °C 29.9in /  1013.4hPa Calm   3mph /  4.8km/h 92% 0.02in /  0.5mm 5.00 W/m2
06:50 56.7 °F /  13.7 °C 54.3 °F /  12.4 °C 29.9in /  1013.4hPa SSE 2mph /  3.2km/h 5mph /  8.0km/h 92% 0.02in /  0.5mm 11.00 W/m2
06:55 56.7 °F /  13.7 °C 54.3 °F /  12.4 °C 29.9in /  1013.1hPa SSE 0.9mph /  1.4km/h 4mph /  6.4km/h 92% 0.02in /  0.5mm 18.00 W/m2
07:00 56.8 °F /  13.8 °C 54.5 °F /  12.5 °C 29.9in /  1013.1hPa SSE 2mph /  3.2km/h 2mph /  3.2km/h 92% 0.03in /  0.8mm 23.00 W/m2
07:05 56.8 °F /  13.8 °C 54.5 °F /  12.5 °C 29.9in /  1013.1hPa SSE 2mph /  3.2km/h 3mph /  4.8km/h 92% 0.04in /  1.0mm 37.00 W/m2
07:10 56.8 °F /  13.8 °C 54.5 °F /  12.5 °C 29.9in /  1013.1hPa SSE 2mph /  3.2km/h 4mph /  6.4km/h 92% 0.04in /  1.0mm 30.00 W/m2
07:15 56.8 °F /  13.8 °C 54.5 °F /  12.5 °C 29.9in /  1013.1hPa SSE 0.9mph /  1.4km/h 2mph /  3.2km/h 92% 0.04in /  1.0mm 12.00 W/m2
07:20 56.8 °F /  13.8 °C 54.5 °F /  12.5 °C 29.9in /  1012.8hPa SSE 2mph /  3.2km/h 4mph /  6.4km/h 92% 0.05in /  1.3mm 0.00 W/m2
07:25 56.7 °F /  13.7 °C 54.3 °F /  12.4 °C 29.9in /  1012.8hPa SSE 2.9mph /  4.7km/h 6mph /  9.7km/h 92% 0.07in /  1.8mm 0.00 W/m2
07:30 56.8 °F /  13.8 °C 54.5 °F /  12.5 °C 29.9in /  1012.8hPa SSE 4mph /  6.4km/h 5mph /  8.0km/h 92% 0.1in /  2.5mm 0.00 W/m2
07:35 56.7 °F /  13.7 °C 54.3 °F /  12.4 °C 29.9in /  1013.1hPa SW 2mph /  3.2km/h 9mph /  14.5km/h 92% 0.13in /  3.3mm 0.00 W/m2
07:40 56.3 °F /  13.5 °C 54 °F /  12.2 °C 29.9in /  1012.8hPa SW 2.9mph /  4.7km/h 8mph /  12.9km/h 92% 0.16in /  4.1mm 0.00 W/m2
07:45 56.1 °F /  13.4 °C 53.8 °F /  12.1 °C 29.9in /  1012.8hPa SSW 4.9mph /  7.9km/h 8mph /  12.9km/h 92% 0.17in /  4.3mm 0.00 W/m2
07:50 55.8 °F /  13.2 °C 53.4 °F /  11.9 °C 29.9in /  1012.8hPa SSW 4mph /  6.4km/h 7mph /  11.3km/h 92% 0.17in /  4.3mm 0.00 W/m2
07:55 55.4 °F /  13.0 °C 53.1 °F /  11.7 °C 29.9in /  1012.8hPa South 10.1mph /  16.3km/h 11mph /  17.7km/h 92% 0.17in /  4.3mm 7.00 W/m2
08:00 55.4 °F /  13.0 °C 53.1 °F /  11.7 °C 29.9in /  1012.4hPa South 6mph /  9.7km/h 10mph /  16.1km/h 92% 0.16in /  4.1mm 11.00 W/m2
08:05 55.4 °F /  13.0 °C 53.1 °F /  11.7 °C 29.9in /  1012.4hPa SSE 2.9mph /  4.7km/h 10mph /  16.1km/h 92% 0.15in /  3.8mm 19.00 W/m2
08:10 55.4 °F /  13.0 °C 53.1 °F /  11.7 °C 29.9in /  1012.4hPa ESE 2.9mph /  4.7km/h 8mph /  12.9km/h 92% 0.14in /  3.6mm 16.00 W/m2
08:15 55.4 °F /  13.0 °C 53.1 °F /  11.7 °C 29.9in /  1012.1hPa South 2mph /  3.2km/h 10mph /  16.1km/h 92% 0.13in /  3.3mm 21.00 W/m2
08:20 55.4 °F /  13.0 °C 53.1 °F /  11.7 °C 29.9in /  1012.1hPa South 6mph /  9.7km/h 10mph /  16.1km/h 92% 0.11in /  2.8mm 19.00 W/m2
08:25 55.4 °F /  13.0 °C 53.1 °F /  11.7 °C 29.9in /  1012.1hPa SSW 6.9mph /  11.1km/h 10mph /  16.1km/h 92% 0.09in /  2.3mm 30.00 W/m2
08:30 55.4 °F /  13.0 °C 53.1 °F /  11.7 °C 29.9in /  1012.1hPa South 4.9mph /  7.9km/h 8mph /  12.9km/h 92% 0.05in /  1.3mm 37.00 W/m2
08:35 55.6 °F /  13.1 °C 53.2 °F /  11.8 °C 29.9in /  1011.7hPa SSE 6mph /  9.7km/h 11mph /  17.7km/h 92% 0.04in /  1.0mm 35.00 W/m2
08:40 55.8 °F /  13.2 °C 53.4 °F /  11.9 °C 29.9in /  1011.7hPa SSE 4.9mph /  7.9km/h 9mph /  14.5km/h 92% 0.02in /  0.5mm 30.00 W/m2
08:45 55.6 °F /  13.1 °C 53.2 °F /  11.8 °C 29.9in /  1011.7hPa South 4.9mph /  7.9km/h 12mph /  19.3km/h 92% 0.01in /  0.3mm 40.00 W/m2
08:50 55.8 °F /  13.2 °C 53.4 °F /  11.9 °C 29.9in /  1011.7hPa SSE 4.9mph /  7.9km/h 14mph /  22.5km/h 92% 0.01in /  0.3mm 42.00 W/m2
08:55 55.8 °F /  13.2 °C 53.4 °F /  11.9 °C 29.9in /  1011.7hPa SSE 4mph /  6.4km/h 9mph /  14.5km/h 92% 0.01in /  0.3mm 46.00 W/m2
09:00 55.8 °F /  13.2 °C 53.4 °F /  11.9 °C 29.9in /  1011.4hPa South 6.9mph /  11.1km/h 13mph /  20.9km/h 92% 0.01in /  0.3mm 58.00 W/m2
09:05 55.8 °F /  13.2 °C 53.4 °F /  11.9 °C 29.9in /  1011.4hPa SSE 4.9mph /  7.9km/h 9mph /  14.5km/h 92% 0.01in /  0.3mm 60.00 W/m2
09:10 55.9 °F /  13.3 °C 53.6 °F /  12.0 °C 29.9in /  1011.4hPa South 14.1mph /  22.7km/h 18mph /  29.0km/h 92% 0.01in /  0.3mm 67.00 W/m2
09:15 55.9 °F /  13.3 °C 54 °F /  12.2 °C 29.9in /  1011.1hPa South 8.1mph /  13.0km/h 14mph /  22.5km/h 93% 0.02in /  0.5mm 86.00 W/m2
09:20 56.1 °F /  13.4 °C 54.1 °F /  12.3 °C 29.9in /  1011.1hPa South 6.9mph /  11.1km/h 16mph /  25.7km/h 93% 0.02in /  0.5mm 98.00 W/m2
09:25 56.3 °F /  13.5 °C 54.3 °F /  12.4 °C 29.9in /  1011.1hPa South 8.9mph /  14.3km/h 12mph /  19.3km/h 93% 0.02in /  0.5mm 90.00 W/m2
09:30 56.3 °F /  13.5 °C 54.3 °F /  12.4 °C 29.9in /  1011.1hPa SSE 6mph /  9.7km/h 14mph /  22.5km/h 93% 0.02in /  0.5mm 70.00 W/m2
09:35 56.7 °F /  13.7 °C 54.7 °F /  12.6 °C 29.9in /  1011.1hPa SSE 6mph /  9.7km/h 7mph /  11.3km/h 93% 0.03in /  0.8mm 70.00 W/m2
09:40 56.7 °F /  13.7 °C 54.7 °F /  12.6 °C 29.8in /  1010.7hPa SSW 2.9mph /  4.7km/h 14mph /  22.5km/h 93% 0.04in /  1.0mm 70.00 W/m2
09:45 56.8 °F /  13.8 °C 54.9 °F /  12.7 °C 29.9in /  1011.1hPa South 4.9mph /  7.9km/h 8mph /  12.9km/h 93% 0.04in /  1.0mm 58.00 W/m2
09:50 57 °F /  13.9 °C 55 °F /  12.8 °C 29.8in /  1010.7hPa WSW 6.9mph /  11.1km/h 12mph /  19.3km/h 93% 0.04in /  1.0mm 86.00 W/m2
09:55 57 °F /  13.9 °C 54.7 °F /  12.6 °C 29.8in /  1010.7hPa SSE 13mph /  20.9km/h 13mph /  20.9km/h 92% 0.04in /  1.0mm 70.00 W/m2
10:00 57 °F /  13.9 °C 54.7 °F /  12.6 °C 29.8in /  1010.7hPa SSE 4mph /  6.4km/h 10mph /  16.1km/h 92% 0.06in /  1.5mm 62.00 W/m2
10:05 57 °F /  13.9 °C 54.7 °F /  12.6 °C 29.8in /  1010.7hPa SSE 8.1mph /  13.0km/h 18mph /  29.0km/h 92% 0.07in /  1.8mm 67.00 W/m2
10:10 57 °F /  13.9 °C 54.7 °F /  12.6 °C 29.8in /  1010.7hPa South 6.9mph /  11.1km/h 18mph /  29.0km/h 92% 0.06in /  1.5mm 98.00 W/m2
10:15 57 °F /  13.9 °C 54.7 °F /  12.6 °C 29.8in /  1010.7hPa South 15mph /  24.1km/h 19mph /  30.6km/h 92% 0.07in /  1.8mm 125.00 W/m2
10:20 57 °F /  13.9 °C 54.7 °F /  12.6 °C 29.8in /  1010.4hPa SSW 8.1mph /  13.0km/h 15mph /  24.1km/h 92% 0.07in /  1.8mm 98.00 W/m2
10:25 57 °F /  13.9 °C 54.7 °F /  12.6 °C 29.8in /  1010.4hPa SSW 6mph /  9.7km/h 12mph /  19.3km/h 92% 0.07in /  1.8mm 127.00 W/m2
10:30 57.2 °F /  14.0 °C 54.9 °F /  12.7 °C 29.8in /  1010.4hPa South 6.9mph /  11.1km/h 15mph /  24.1km/h 92% 0.07in /  1.8mm 185.00 W/m2
10:35 57.2 °F /  14.0 °C 54.9 °F /  12.7 °C 29.8in /  1010.4hPa South 8.1mph /  13.0km/h 18mph /  29.0km/h 92% 0.05in /  1.3mm 139.00 W/m2
10:40 57.2 °F /  14.0 °C 54.9 °F /  12.7 °C 29.8in /  1010.4hPa South 10.1mph /  16.3km/h 14mph /  22.5km/h 92% 0.05in /  1.3mm 128.00 W/m2
10:45 57.6 °F /  14.2 °C 55.2 °F /  12.9 °C 29.8in /  1010.4hPa South 4mph /  6.4km/h 10mph /  16.1km/h 92% 0.05in /  1.3mm 148.00 W/m2
10:50 57.6 °F /  14.2 °C 55.2 °F /  12.9 °C 29.8in /  1010.4hPa SW 4mph /  6.4km/h 11mph /  17.7km/h 92% 0.04in /  1.0mm 193.00 W/m2
10:55 57.7 °F /  14.3 °C 55.4 °F /  13.0 °C 29.8in /  1010.4hPa SSW 6.9mph /  11.1km/h 8mph /  12.9km/h 92% 0.04in /  1.0mm 183.00 W/m2
11:00 57.7 °F /  14.3 °C 55.4 °F /  13.0 °C 29.8in /  1010.4hPa South 4.9mph /  7.9km/h 13mph /  20.9km/h 92% 0.02in /  0.5mm 132.00 W/m2
11:05 57.7 °F /  14.3 °C 55.4 °F /  13.0 °C 29.8in /  1010.0hPa SW 4.9mph /  7.9km/h 17mph /  27.4km/h 92% 0.01in /  0.3mm 149.00 W/m2
11:10 57.9 °F /  14.4 °C 55.6 °F /  13.1 °C 29.8in /  1010.4hPa SSW 4.9mph /  7.9km/h 10mph /  16.1km/h 92% 0in /  0.0mm 153.00 W/m2
11:15 58.1 °F /  14.5 °C 56.1 °F /  13.4 °C 29.8in /  1010.0hPa South 2.9mph /  4.7km/h 10mph /  16.1km/h 93% 0in /  0.0mm 142.00 W/m2
11:20 58.3 °F /  14.6 °C 56.3 °F /  13.5 °C 29.8in /  1010.0hPa SSW 4.9mph /  7.9km/h 8mph /  12.9km/h 93% 0in /  0.0mm 148.00 W/m2
11:25 58.5 °F /  14.7 °C 56.5 °F /  13.6 °C 29.8in /  1010.0hPa South 4mph /  6.4km/h 11mph /  17.7km/h 93% 0in /  0.0mm 111.00 W/m2
11:30 58.6 °F /  14.8 °C 56.7 °F /  13.7 °C 29.8in /  1010.0hPa SSW 4mph /  6.4km/h 11mph /  17.7km/h 93% 0in /  0.0mm 97.00 W/m2
11:35 58.8 °F /  14.9 °C 56.8 °F /  13.8 °C 29.8in /  1010.0hPa South 6mph /  9.7km/h 15mph /  24.1km/h 93% 0in /  0.0mm 102.00 W/m2
11:40 59 °F /  15.0 °C 57 °F /  13.9 °C 29.8in /  1010.0hPa South 6mph /  9.7km/h 11mph /  17.7km/h 93% 0in /  0.0mm 155.00 W/m2
11:45 59.2 °F /  15.1 °C 57.2 °F /  14.0 °C 29.8in /  1010.0hPa South 13mph /  20.9km/h 13mph /  20.9km/h 93% 0in /  0.0mm 111.00 W/m2
11:50 59.4 °F /  15.2 °C 57.4 °F /  14.1 °C 29.8in /  1010.0hPa SSW 2.9mph /  4.7km/h 9mph /  14.5km/h 93% 0in /  0.0mm 109.00 W/m2
11:55 59.5 °F /  15.3 °C 57.6 °F /  14.2 °C 29.8in /  1010.0hPa SSW 4.9mph /  7.9km/h 12mph /  19.3km/h 93% 0in /  0.0mm 102.00 W/m2
12:00 59.7 °F /  15.4 °C 57.7 °F /  14.3 °C 29.8in /  1010.0hPa SSE 2.9mph /  4.7km/h 14mph /  22.5km/h 93% 0in /  0.0mm 118.00 W/m2
12:05 59.9 °F /  15.5 °C 57.9 °F /  14.4 °C 29.8in /  1010.0hPa WSW 10.1mph /  16.3km/h 13mph /  20.9km/h 93% 0in /  0.0mm 79.00 W/m2
12:10 60.1 °F /  15.6 °C 58.1 °F /  14.5 °C 29.8in /  1010.0hPa SSW 2.9mph /  4.7km/h 11mph /  17.7km/h 93% 0in /  0.0mm 72.00 W/m2
12:15 60.3 °F /  15.7 °C 58.3 °F /  14.6 °C 29.8in /  1010.0hPa SSW 4.9mph /  7.9km/h 15mph /  24.1km/h 93% 0in /  0.0mm 172.00 W/m2
12:20 60.3 °F /  15.7 °C 58.3 °F /  14.6 °C 29.8in /  1010.0hPa SW 11mph /  17.7km/h 15mph /  24.1km/h 93% 0in /  0.0mm 90.00 W/m2
12:25 60.3 °F /  15.7 °C 57.9 °F /  14.4 °C 29.8in /  1009.7hPa SSW 8.1mph /  13.0km/h 18mph /  29.0km/h 92% 0in /  0.0mm 155.00 W/m2
12:30 60.3 °F /  15.7 °C 57.9 °F /  14.4 °C 29.8in /  1009.7hPa SW 4mph /  6.4km/h 15mph /  24.1km/h 92% 0in /  0.0mm 130.00 W/m2
12:35 60.4 °F /  15.8 °C 58.1 °F /  14.5 °C 29.8in /  1009.7hPa SW 8.9mph /  14.3km/h 15mph /  24.1km/h 92% 0in /  0.0mm 169.00 W/m2
12:40 60.6 °F /  15.9 °C 57.9 °F /  14.4 °C 29.8in /  1009.7hPa South 4mph /  6.4km/h 14mph /  22.5km/h 91% 0in /  0.0mm 178.00 W/m2
12:45 60.8 °F /  16.0 °C 58.1 °F /  14.5 °C 29.8in /  1009.7hPa SSW 19mph /  30.6km/h 19mph /  30.6km/h 91% 0in /  0.0mm 109.00 W/m2
12:50 60.6 °F /  15.9 °C 57.9 °F /  14.4 °C 29.8in /  1009.7hPa WSW 11mph /  17.7km/h 14mph /  22.5km/h 91% 0in /  0.0mm 123.00 W/m2
12:55 60.6 °F /  15.9 °C 57.9 °F /  14.4 °C 29.8in /  1009.4hPa SW 6mph /  9.7km/h 12mph /  19.3km/h 91% 0in /  0.0mm 102.00 W/m2
13:00 60.8 °F /  16.0 °C 58.1 °F /  14.5 °C 29.8in /  1009.7hPa SW 6mph /  9.7km/h 6mph /  9.7km/h 91% 0in /  0.0mm 86.00 W/m2
13:05 60.6 °F /  15.9 °C 57.9 °F /  14.4 °C 29.8in /  1009.4hPa SW 12.1mph /  19.5km/h 18mph /  29.0km/h 91% 0in /  0.0mm 86.00 W/m2
13:10 60.6 °F /  15.9 °C 57.9 °F /  14.4 °C 29.8in /  1009.4hPa SSW 6.9mph /  11.1km/h 15mph /  24.1km/h 91% 0in /  0.0mm 134.00 W/m2
13:15 60.6 °F /  15.9 °C 57.9 °F /  14.4 °C 29.8in /  1009.4hPa SSW 8.9mph /  14.3km/h 18mph /  29.0km/h 91% 0in /  0.0mm 158.00 W/m2
13:20 60.6 °F /  15.9 °C 57.9 °F /  14.4 °C 29.8in /  1009.0hPa SSW 4mph /  6.4km/h 15mph /  24.1km/h 91% 0in /  0.0mm 218.00 W/m2
13:25 60.8 °F /  16.0 °C 58.1 °F /  14.5 °C 29.8in /  1009.0hPa SW 12.1mph /  19.5km/h 15mph /  24.1km/h 91% 0in /  0.0mm 188.00 W/m2
13:30 60.8 °F /  16.0 °C 58.1 °F /  14.5 °C 29.8in /  1009.0hPa WSW 8.1mph /  13.0km/h 15mph /  24.1km/h 91% 0in /  0.0mm 195.00 W/m2
13:35 61 °F /  16.1 °C 58.3 °F /  14.6 °C 29.8in /  1009.0hPa SW 8.1mph /  13.0km/h 12mph /  19.3km/h 91% 0in /  0.0mm 137.00 W/m2
13:40 61.2 °F /  16.2 °C 58.5 °F /  14.7 °C 29.8in /  1009.0hPa SSW 4mph /  6.4km/h 10mph /  16.1km/h 91% 0in /  0.0mm 265.00 W/m2
13:45 61.2 °F /  16.2 °C 58.3 °F /  14.6 °C 29.8in /  1009.0hPa SSW 4.9mph /  7.9km/h 15mph /  24.1km/h 90% 0in /  0.0mm 193.00 W/m2
13:50 61.2 °F /  16.2 °C 58.3 °F /  14.6 °C 29.8in /  1009.0hPa SSW 2.9mph /  4.7km/h 10mph /  16.1km/h 90% 0in /  0.0mm 190.00 W/m2
13:55 61 °F /  16.1 °C 58.3 °F /  14.6 °C 29.8in /  1009.0hPa SSW 4mph /  6.4km/h 15mph /  24.1km/h 91% 0in /  0.0mm 200.00 W/m2
14:00 61 °F /  16.1 °C 58.3 °F /  14.6 °C 29.8in /  1009.0hPa SSW 6mph /  9.7km/h 14mph /  22.5km/h 91% 0in /  0.0mm 135.00 W/m2
14:05 60.8 °F /  16.0 °C 58.1 °F /  14.5 °C 29.8in /  1009.0hPa SSW 6.9mph /  11.1km/h 17mph /  27.4km/h 91% 0in /  0.0mm 104.00 W/m2
14:10 60.8 °F /  16.0 °C 58.1 °F /  14.5 °C 29.8in /  1009.0hPa SSW 10.1mph /  16.3km/h 13mph /  20.9km/h 91% 0in /  0.0mm 113.00 W/m2
14:15 60.6 °F /  15.9 °C 57.9 °F /  14.4 °C 29.8in /  1009.0hPa SSW 10.1mph /  16.3km/h 14mph /  22.5km/h 91% 0in /  0.0mm 111.00 W/m2
14:20 60.8 °F /  16.0 °C 58.1 °F /  14.5 °C 29.8in /  1009.0hPa SSW 4.9mph /  7.9km/h 9mph /  14.5km/h 91% 0in /  0.0mm 109.00 W/m2
14:25 60.8 °F /  16.0 °C 58.1 °F /  14.5 °C 29.8in /  1009.0hPa SSW 6.9mph /  11.1km/h 15mph /  24.1km/h 91% 0in /  0.0mm 98.00 W/m2
14:30 60.8 °F /  16.0 °C 58.1 °F /  14.5 °C 29.8in /  1009.0hPa SW 4mph /  6.4km/h 14mph /  22.5km/h 91% 0in /  0.0mm 105.00 W/m2
14:35 60.6 °F /  15.9 °C 57.9 °F /  14.4 °C 29.8in /  1009.0hPa SW 8.9mph /  14.3km/h 12mph /  19.3km/h 91% 0in /  0.0mm 88.00 W/m2
14:40 60.6 °F /  15.9 °C 57.9 °F /  14.4 °C 29.8in /  1008.7hPa SW 8.1mph /  13.0km/h 10mph /  16.1km/h 91% 0in /  0.0mm 107.00 W/m2
14:45 60.6 °F /  15.9 °C 58.3 °F /  14.6 °C 29.8in /  1008.7hPa South 8.9mph /  14.3km/h 12mph /  19.3km/h 92% 0in /  0.0mm 128.00 W/m2
14:50 60.6 °F /  15.9 °C 58.3 °F /  14.6 °C 29.8in /  1008.4hPa SSW 14mph /  22.5km/h 14mph /  22.5km/h 92% 0in /  0.0mm 97.00 W/m2
14:55 60.8 °F /  16.0 °C 58.5 °F /  14.7 °C 29.8in /  1008.4hPa SSW 6.9mph /  11.1km/h 12mph /  19.3km/h 92% 0in /  0.0mm 98.00 W/m2
15:00 60.8 °F /  16.0 °C 58.5 °F /  14.7 °C 29.8in /  1008.4hPa SSW 11mph /  17.7km/h 12mph /  19.3km/h 92% 0in /  0.0mm 91.00 W/m2
15:05 61 °F /  16.1 °C 58.6 °F /  14.8 °C 29.8in /  1008.4hPa SSW 10.1mph /  16.3km/h 12mph /  19.3km/h 92% 0in /  0.0mm 79.00 W/m2
15:10 61 °F /  16.1 °C 58.6 °F /  14.8 °C 29.8in /  1008.4hPa SSW 8.9mph /  14.3km/h 18mph /  29.0km/h 92% 0in /  0.0mm 67.00 W/m2
15:15 61 °F /  16.1 °C 58.6 °F /  14.8 °C 29.8in /  1008.4hPa SSW 4mph /  6.4km/h 14mph /  22.5km/h 92% 0in /  0.0mm 69.00 W/m2
15:20 61 °F /  16.1 °C 58.6 °F /  14.8 °C 29.8in /  1008.4hPa SW 6mph /  9.7km/h 8mph /  12.9km/h 92% 0in /  0.0mm 83.00 W/m2
15:25 61 °F /  16.1 °C 58.6 °F /  14.8 °C 29.8in /  1008.4hPa SSW 2mph /  3.2km/h 8mph /  12.9km/h 92% 0in /  0.0mm 84.00 W/m2
15:30 61 °F /  16.1 °C 58.6 °F /  14.8 °C 29.8in /  1008.4hPa SW 13mph /  20.9km/h 13mph /  20.9km/h 92% 0in /  0.0mm 90.00 W/m2
15:35 60.8 °F /  16.0 °C 58.5 °F /  14.7 °C 29.8in /  1008.0hPa SSW 2.9mph /  4.7km/h 16mph /  25.7km/h 92% 0in /  0.0mm 105.00 W/m2
15:40 60.8 °F /  16.0 °C 58.5 °F /  14.7 °C 29.8in /  1008.0hPa South 2.9mph /  4.7km/h 14mph /  22.5km/h 92% 0in /  0.0mm 95.00 W/m2
15:45 61 °F /  16.1 °C 58.6 °F /  14.8 °C 29.8in /  1008.0hPa SSW 4mph /  6.4km/h 8mph /  12.9km/h 92% 0in /  0.0mm 98.00 W/m2
15:50 61.2 °F /  16.2 °C 58.8 °F /  14.9 °C 29.8in /  1008.0hPa WSW 2mph /  3.2km/h 10mph /  16.1km/h 92% 0in /  0.0mm 153.00 W/m2
15:55 61.2 °F /  16.2 °C 58.8 °F /  14.9 °C 29.8in /  1008.0hPa SSW 2mph /  3.2km/h 10mph /  16.1km/h 92% 0in /  0.0mm 137.00 W/m2
16:00 61.3 °F /  16.3 °C 59 °F /  15.0 °C 29.8in /  1007.7hPa WSW 8.1mph /  13.0km/h 9mph /  14.5km/h 92% 0in /  0.0mm 134.00 W/m2
16:05 61.3 °F /  16.3 °C 59 °F /  15.0 °C 29.8in /  1007.7hPa WSW 8.1mph /  13.0km/h 11mph /  17.7km/h 92% 0in /  0.0mm 142.00 W/m2
16:10 61.5 °F /  16.4 °C 59.2 °F /  15.1 °C 29.8in /  1007.7hPa SW 2.9mph /  4.7km/h 9mph /  14.5km/h 92% 0in /  0.0mm 216.00 W/m2
16:15 61.5 °F /  16.4 °C 59.2 °F /  15.1 °C 29.8in /  1007.7hPa SW 4mph /  6.4km/h 9mph /  14.5km/h 92% 0in /  0.0mm 225.00 W/m2
16:20 61.7 °F /  16.5 °C 59.4 °F /  15.2 °C 29.8in /  1007.7hPa SW 8.1mph /  13.0km/h 11mph /  17.7km/h 92% 0in /  0.0mm 223.00 W/m2
16:25 61.9 °F /  16.6 °C 59.5 °F /  15.3 °C 29.8in /  1007.7hPa SW 2mph /  3.2km/h 6mph /  9.7km/h 92% 0in /  0.0mm 181.00 W/m2
16:30 62.1 °F /  16.7 °C 59.7 °F /  15.4 °C 29.7in /  1007.3hPa SW 8.1mph /  13.0km/h 10mph /  16.1km/h 92% 0in /  0.0mm 163.00 W/m2
16:35 62.1 °F /  16.7 °C 59.7 °F /  15.4 °C 29.7in /  1007.3hPa SSW 2mph /  3.2km/h 9mph /  14.5km/h 92% 0in /  0.0mm 132.00 W/m2
16:40 62.2 °F /  16.8 °C 59.9 °F /  15.5 °C 29.7in /  1007.3hPa SW 6mph /  9.7km/h 10mph /  16.1km/h 92% 0in /  0.0mm 178.00 W/m2
16:45 62.6 °F /  17.0 °C 60.3 °F /  15.7 °C 29.7in /  1007.3hPa SW 6mph /  9.7km/h 6mph /  9.7km/h 92% 0in /  0.0mm 218.00 W/m2
16:50 63 °F /  17.2 °C 60.6 °F /  15.9 °C 29.7in /  1007.3hPa WSW 11mph /  17.7km/h 11mph /  17.7km/h 92% 0in /  0.0mm 125.00 W/m2
16:55 63 °F /  17.2 °C 60.6 °F /  15.9 °C 29.7in /  1007.3hPa SW 4mph /  6.4km/h 11mph /  17.7km/h 92% 0in /  0.0mm 74.00 W/m2
17:00 63.1 °F /  17.3 °C 60.8 °F /  16.0 °C 29.7in /  1007.0hPa SW 8.1mph /  13.0km/h 12mph /  19.3km/h 92% 0in /  0.0mm 72.00 W/m2
17:05 63.1 °F /  17.3 °C 60.4 °F /  15.8 °C 29.7in /  1007.0hPa WSW 10.1mph /  16.3km/h 11mph /  17.7km/h 91% 0in /  0.0mm 23.00 W/m2
17:10 63.3 °F /  17.4 °C 60.6 °F /  15.9 °C 29.7in /  1007.3hPa WNW 6.9mph /  11.1km/h 10mph /  16.1km/h 91% 0in /  0.0mm 47.00 W/m2
17:15 63.3 °F /  17.4 °C 60.6 °F /  15.9 °C 29.7in /  1007.3hPa West 2mph /  3.2km/h 6mph /  9.7km/h 91% 0in /  0.0mm 121.00 W/m2
17:20 63.3 °F /  17.4 °C 60.6 °F /  15.9 °C 29.7in /  1007.3hPa West 6mph /  9.7km/h 8mph /  12.9km/h 91% 0in /  0.0mm 193.00 W/m2
17:25 63.3 °F /  17.4 °C 60.6 °F /  15.9 °C 29.7in /  1007.3hPa West 4.9mph /  7.9km/h 9mph /  14.5km/h 91% 0in /  0.0mm 192.00 W/m2
17:30 63.7 °F /  17.6 °C 61.3 °F /  16.3 °C 29.7in /  1007.0hPa West 2mph /  3.2km/h 7mph /  11.3km/h 92% 0in /  0.0mm 265.00 W/m2
17:35 63.9 °F /  17.7 °C 61.5 °F /  16.4 °C 29.7in /  1007.0hPa WNW 4.9mph /  7.9km/h 6mph /  9.7km/h 92% 0in /  0.0mm 167.00 W/m2
17:40 63.9 °F /  17.7 °C 61.5 °F /  16.4 °C 29.7in /  1007.0hPa West 6mph /  9.7km/h 8mph /  12.9km/h 92% 0in /  0.0mm 116.00 W/m2
17:45 63.7 °F /  17.6 °C 61.3 °F /  16.3 °C 29.7in /  1007.0hPa WNW 12mph /  19.3km/h 12mph /  19.3km/h 92% 0in /  0.0mm 107.00 W/m2
17:50 63.5 °F /  17.5 °C 61.2 °F /  16.2 °C 29.7in /  1007.0hPa West 12.1mph /  19.5km/h 12mph /  19.3km/h 92% 0in /  0.0mm 76.00 W/m2
17:55 63.5 °F /  17.5 °C 61.2 °F /  16.2 °C 29.7in /  1007.0hPa WNW 4.9mph /  7.9km/h 10mph /  16.1km/h 92% 0.01in /  0.3mm 86.00 W/m2
18:00 63.5 °F /  17.5 °C 61.2 °F /  16.2 °C 29.7in /  1007.3hPa West 2mph /  3.2km/h 7mph /  11.3km/h 92% 0.01in /  0.3mm 93.00 W/m2
18:05 63.5 °F /  17.5 °C 61.2 °F /  16.2 °C 29.7in /  1007.3hPa West 4.9mph /  7.9km/h 6mph /  9.7km/h 92% 0.01in /  0.3mm 70.00 W/m2
18:10 63.3 °F /  17.4 °C 61 °F /  16.1 °C 29.7in /  1007.0hPa WNW 4mph /  6.4km/h 8mph /  12.9km/h 92% 0.01in /  0.3mm 72.00 W/m2
18:15 63.3 °F /  17.4 °C 61 °F /  16.1 °C 29.7in /  1007.3hPa West 8.9mph /  14.3km/h 9mph /  14.5km/h 92% 0.01in /  0.3mm 42.00 W/m2
18:20 63 °F /  17.2 °C 60.6 °F /  15.9 °C 29.7in /  1007.3hPa West 4mph /  6.4km/h 10mph /  16.1km/h 92% 0.01in /  0.3mm 67.00 W/m2
18:25 63 °F /  17.2 °C 60.6 °F /  15.9 °C 29.7in /  1007.3hPa WNW 4mph /  6.4km/h 8mph /  12.9km/h 92% 0.01in /  0.3mm 54.00 W/m2
18:30 63 °F /  17.2 °C 61 °F /  16.1 °C 29.7in /  1007.3hPa WNW 4mph /  6.4km/h 8mph /  12.9km/h 93% 0.01in /  0.3mm 40.00 W/m2
18:35 62.6 °F /  17.0 °C 60.6 °F /  15.9 °C 29.7in /  1007.3hPa West 6mph /  9.7km/h 6mph /  9.7km/h 93% 0.03in /  0.8mm 70.00 W/m2
18:40 62.6 °F /  17.0 °C 60.6 °F /  15.9 °C 29.7in /  1007.3hPa West 0.9mph /  1.4km/h 8mph /  12.9km/h 93% 0.04in /  1.0mm 42.00 W/m2
18:45 62.4 °F /  16.9 °C 60.4 °F /  15.8 °C 29.7in /  1007.3hPa West 0.9mph /  1.4km/h 7mph /  11.3km/h 93% 0.04in /  1.0mm 40.00 W/m2
18:50 62.2 °F /  16.8 °C 60.3 °F /  15.7 °C 29.7in /  1007.3hPa West 6mph /  9.7km/h 10mph /  16.1km/h 93% 0.04in /  1.0mm 47.00 W/m2
18:55 62.2 °F /  16.8 °C 60.3 °F /  15.7 °C 29.7in /  1007.3hPa West 4mph /  6.4km/h 7mph /  11.3km/h 93% 0.03in /  0.8mm 51.00 W/m2
19:00 62.4 °F /  16.9 °C 60.4 °F /  15.8 °C 29.7in /  1007.0hPa West 4.9mph /  7.9km/h 11mph /  17.7km/h 93% 0.03in /  0.8mm 37.00 W/m2
19:05 62.2 °F /  16.8 °C 60.3 °F /  15.7 °C 29.7in /  1007.3hPa WNW 8.9mph /  14.3km/h 12mph /  19.3km/h 93% 0.03in /  0.8mm 33.00 W/m2
19:10 62.2 °F /  16.8 °C 60.3 °F /  15.7 °C 29.7in /  1007.3hPa West 4.9mph /  7.9km/h 6mph /  9.7km/h 93% 0.03in /  0.8mm 56.00 W/m2
19:15 62.1 °F /  16.7 °C 60.3 °F /  15.7 °C 29.7in /  1007.3hPa WNW 2mph /  3.2km/h 13mph /  20.9km/h 94% 0.03in /  0.8mm 60.00 W/m2
19:20 62.1 °F /  16.7 °C 60.1 °F /  15.6 °C 29.7in /  1007.3hPa WNW 4mph /  6.4km/h 9mph /  14.5km/h 93% 0.03in /  0.8mm 63.00 W/m2
19:25 61.9 °F /  16.6 °C 59.9 °F /  15.5 °C 29.7in /  1007.3hPa West 4mph /  6.4km/h 12mph /  19.3km/h 93% 0.03in /  0.8mm 44.00 W/m2
19:30 61.9 °F /  16.6 °C 59.9 °F /  15.5 °C 29.7in /  1007.3hPa West 2mph /  3.2km/h 10mph /  16.1km/h 93% 0.03in /  0.8mm 32.00 W/m2
19:35 61.9 °F /  16.6 °C 59.9 °F /  15.5 °C 29.7in /  1007.3hPa WNW 4.9mph /  7.9km/h 13mph /  20.9km/h 93% 0in /  0.0mm 30.00 W/m2
19:40 61.9 °F /  16.6 °C 59.9 °F /  15.5 °C 29.7in /  1007.0hPa WNW 6mph /  9.7km/h 9mph /  14.5km/h 93% 0in /  0.0mm 39.00 W/m2
19:45 61.7 °F /  16.5 °C 59.7 °F /  15.4 °C 29.7in /  1007.3hPa WNW 4mph /  6.4km/h 8mph /  12.9km/h 93% 0in /  0.0mm 30.00 W/m2
19:50 61.7 °F /  16.5 °C 59.4 °F /  15.2 °C 29.7in /  1007.3hPa West 6mph /  9.7km/h 7mph /  11.3km/h 92% 0in /  0.0mm 26.00 W/m2
19:55 61.7 °F /  16.5 °C 59.4 °F /  15.2 °C 29.7in /  1007.3hPa West 2.9mph /  4.7km/h 8mph /  12.9km/h 92% 0in /  0.0mm 25.00 W/m2
20:00 61.7 °F /  16.5 °C 59.4 °F /  15.2 °C 29.7in /  1007.3hPa West 4mph /  6.4km/h 10mph /  16.1km/h 92% 0in /  0.0mm 21.00 W/m2
20:05 61.7 °F /  16.5 °C 59.4 °F /  15.2 °C 29.7in /  1007.3hPa West 4.9mph /  7.9km/h 11mph /  17.7km/h 92% 0in /  0.0mm 18.00 W/m2
20:10 61.7 °F /  16.5 °C 59.4 °F /  15.2 °C 29.7in /  1007.3hPa WNW 4.9mph /  7.9km/h 12mph /  19.3km/h 92% 0in /  0.0mm 12.00 W/m2
20:15 61.7 °F /  16.5 °C 59.4 °F /  15.2 °C 29.7in /  1007.3hPa West 2.9mph /  4.7km/h 8mph /  12.9km/h 92% 0in /  0.0mm 9.00 W/m2
20:20 61.7 °F /  16.5 °C 59.4 °F /  15.2 °C 29.7in /  1007.3hPa WNW 6mph /  9.7km/h 9mph /  14.5km/h 92% 0in /  0.0mm 0.00 W/m2
20:25 61.7 °F /  16.5 °C 59.4 °F /  15.2 °C 29.7in /  1007.3hPa West 4.9mph /  7.9km/h 8mph /  12.9km/h 92% 0in /  0.0mm 0.00 W/m2
20:30 61.9 °F /  16.6 °C 59.5 °F /  15.3 °C 29.7in /  1007.3hPa West 8.1mph /  13.0km/h 11mph /  17.7km/h 92% 0in /  0.0mm 0.00 W/m2
20:35 61.9 °F /  16.6 °C 59.5 °F /  15.3 °C 29.7in /  1007.3hPa WNW 6.9mph /  11.1km/h 10mph /  16.1km/h 92% 0in /  0.0mm 0.00 W/m2
20:40 61.9 °F /  16.6 °C 59.5 °F /  15.3 °C 29.7in /  1007.3hPa West 8.1mph /  13.0km/h 9mph /  14.5km/h 92% 0in /  0.0mm 0.00 W/m2
20:45 62.1 °F /  16.7 °C 59.7 °F /  15.4 °C 29.7in /  1007.3hPa West 10.1mph /  16.3km/h 15mph /  24.1km/h 92% 0in /  0.0mm 0.00 W/m2
20:50 62.1 °F /  16.7 °C 59.7 °F /  15.4 °C 29.7in /  1007.3hPa WSW 4.9mph /  7.9km/h 13mph /  20.9km/h 92% 0in /  0.0mm 0.00 W/m2
20:55 62.1 °F /  16.7 °C 59.7 °F /  15.4 °C 29.7in /  1007.3hPa WSW 8.1mph /  13.0km/h 12mph /  19.3km/h 92% 0in /  0.0mm 0.00 W/m2
21:00 61.9 °F /  16.6 °C 59.5 °F /  15.3 °C 29.8in /  1007.7hPa West 2.9mph /  4.7km/h 9mph /  14.5km/h 92% 0in /  0.0mm 0.00 W/m2
21:05 61.7 °F /  16.5 °C 59.4 °F /  15.2 °C 29.8in /  1007.7hPa West 6mph /  9.7km/h 14mph /  22.5km/h 92% 0in /  0.0mm 0.00 W/m2
21:10 61.7 °F /  16.5 °C 59.4 °F /  15.2 °C 29.8in /  1007.7hPa West 8.1mph /  13.0km/h 9mph /  14.5km/h 92% 0in /  0.0mm 0.00 W/m2
21:15 61.7 °F /  16.5 °C 59.4 °F /  15.2 °C 29.8in /  1007.7hPa West 4mph /  6.4km/h 13mph /  20.9km/h 92% 0.01in /  0.3mm 0.00 W/m2
21:20 61.5 °F /  16.4 °C 59.2 °F /  15.1 °C 29.8in /  1007.7hPa West 6mph /  9.7km/h 12mph /  19.3km/h 92% 0.01in /  0.3mm 0.00 W/m2
21:25 61.5 °F /  16.4 °C 59.2 °F /  15.1 °C 29.8in /  1007.7hPa NW 8.9mph /  14.3km/h 10mph /  16.1km/h 92% 0.01in /  0.3mm 0.00 W/m2
21:30 61.3 °F /  16.3 °C 59 °F /  15.0 °C 29.8in /  1007.7hPa West 2mph /  3.2km/h 6mph /  9.7km/h 92% 0.01in /  0.3mm 0.00 W/m2
21:35 61.3 °F /  16.3 °C 59 °F /  15.0 °C 29.8in /  1007.7hPa Calm   6mph /  9.7km/h 92% 0.01in /  0.3mm 0.00 W/m2
21:40 61.3 °F /  16.3 °C 59 °F /  15.0 °C 29.8in /  1007.7hPa West 6.9mph /  11.1km/h 7mph /  11.3km/h 92% 0.01in /  0.3mm 0.00 W/m2
21:45 61.3 °F /  16.3 °C 59 °F /  15.0 °C 29.8in /  1007.7hPa WNW 4mph /  6.4km/h 10mph /  16.1km/h 92% 0.01in /  0.3mm 0.00 W/m2
21:50 61.3 °F /  16.3 °C 59.4 °F /  15.2 °C 29.8in /  1007.7hPa WNW 6mph /  9.7km/h 8mph /  12.9km/h 93% 0.01in /  0.3mm 0.00 W/m2
21:55 61.3 °F /  16.3 °C 59.4 °F /  15.2 °C 29.8in /  1007.7hPa WSW 2.9mph /  4.7km/h 7mph /  11.3km/h 93% 0.01in /  0.3mm 0.00 W/m2
22:00 61.3 °F /  16.3 °C 59.4 °F /  15.2 °C 29.8in /  1007.7hPa West 4mph /  6.4km/h 7mph /  11.3km/h 93% 0.01in /  0.3mm 0.00 W/m2
22:05 61.3 °F /  16.3 °C 59.4 °F /  15.2 °C 29.8in /  1007.7hPa WSW 4.9mph /  7.9km/h 11mph /  17.7km/h 93% 0.01in /  0.3mm 0.00 W/m2
22:10 61.3 °F /  16.3 °C 59.4 °F /  15.2 °C 29.8in /  1007.7hPa WSW 6mph /  9.7km/h 7mph /  11.3km/h 93% 0in /  0.0mm 0.00 W/m2
22:15 61.3 °F /  16.3 °C 59.4 °F /  15.2 °C 29.8in /  1007.7hPa West 6mph /  9.7km/h 14mph /  22.5km/h 93% 0in /  0.0mm 0.00 W/m2
22:20 61.3 °F /  16.3 °C 59.4 °F /  15.2 °C 29.8in /  1007.7hPa WNW 13mph /  20.9km/h 13mph /  20.9km/h 93% 0in /  0.0mm 0.00 W/m2
22:25 61.5 °F /  16.4 °C 59.5 °F /  15.3 °C 29.8in /  1007.7hPa West 6mph /  9.7km/h 10mph /  16.1km/h 93% 0in /  0.0mm 0.00 W/m2
22:30 61.5 °F /  16.4 °C 59.5 °F /  15.3 °C 29.8in /  1007.7hPa West 4mph /  6.4km/h 10mph /  16.1km/h 93% 0in /  0.0mm 0.00 W/m2
22:35 61.5 °F /  16.4 °C 59.5 °F /  15.3 °C 29.8in /  1007.7hPa West 4.9mph /  7.9km/h 8mph /  12.9km/h 93% 0in /  0.0mm 0.00 W/m2
22:40 61.5 °F /  16.4 °C 59.5 °F /  15.3 °C 29.8in /  1007.7hPa WNW 10.1mph /  16.3km/h 10mph /  16.1km/h 93% 0in /  0.0mm 0.00 W/m2
22:45 61.5 °F /  16.4 °C 59.5 °F /  15.3 °C 29.8in /  1007.7hPa WNW 6mph /  9.7km/h 9mph /  14.5km/h 93% 0in /  0.0mm 0.00 W/m2
22:50 61.5 °F /  16.4 °C 59.5 °F /  15.3 °C 29.8in /  1007.7hPa WNW 8.9mph /  14.3km/h 9mph /  14.5km/h 93% 0in /  0.0mm 0.00 W/m2
22:55 61.5 °F /  16.4 °C 59.5 °F /  15.3 °C 29.8in /  1007.7hPa WNW 8.1mph /  13.0km/h 9mph /  14.5km/h 93% 0in /  0.0mm 0.00 W/m2
23:00 61.5 °F /  16.4 °C 59.5 °F /  15.3 °C 29.8in /  1007.7hPa WNW 2.9mph /  4.7km/h 12mph /  19.3km/h 93% 0in /  0.0mm 0.00 W/m2
23:05 61.5 °F /  16.4 °C 59.5 °F /  15.3 °C 29.8in /  1007.7hPa West 4mph /  6.4km/h 11mph /  17.7km/h 93% 0in /  0.0mm 0.00 W/m2
23:10 61.5 °F /  16.4 °C 59.5 °F /  15.3 °C 29.8in /  1007.7hPa WSW 8.1mph /  13.0km/h 10mph /  16.1km/h 93% 0in /  0.0mm 0.00 W/m2
23:15 61.5 °F /  16.4 °C 59.2 °F /  15.1 °C 29.8in /  1008.0hPa West 4mph /  6.4km/h 13mph /  20.9km/h 92% 0in /  0.0mm 0.00 W/m2
23:20 61.5 °F /  16.4 °C 59.2 °F /  15.1 °C 29.8in /  1008.0hPa WNW 8.1mph /  13.0km/h 12mph /  19.3km/h 92% 0in /  0.0mm 0.00 W/m2
23:25 61.5 °F /  16.4 °C 59.2 °F /  15.1 °C 29.8in /  1008.0hPa West 6mph /  9.7km/h 13mph /  20.9km/h 92% 0in /  0.0mm 0.00 W/m2
23:30 61.5 °F /  16.4 °C 59.2 °F /  15.1 °C 29.8in /  1008.4hPa WNW 8.1mph /  13.0km/h 12mph /  19.3km/h 92% 0in /  0.0mm 0.00 W/m2
23:35 61.7 °F /  16.5 °C 59 °F /  15.0 °C 29.8in /  1008.4hPa NW 6.9mph /  11.1km/h 13mph /  20.9km/h 91% 0in /  0.0mm 0.00 W/m2
23:40 61.5 °F /  16.4 °C 58.8 °F /  14.9 °C 29.8in /  1008.4hPa WNW 8.9mph /  14.3km/h 16mph /  25.7km/h 91% 0in /  0.0mm 0.00 W/m2
23:45 61.5 °F /  16.4 °C 58.6 °F /  14.8 °C 29.8in /  1008.4hPa WNW 12.1mph /  19.5km/h 16mph /  25.7km/h 90% 0in /  0.0mm 0.00 W/m2
23:50 61.5 °F /  16.4 °C 58.6 °F /  14.8 °C 29.8in /  1008.4hPa West 12.1mph /  19.5km/h 12mph /  19.3km/h 90% 0in /  0.0mm 0.00 W/m2
23:55 61.5 °F /  16.4 °C 58.3 °F /  14.6 °C 29.8in /  1008.4hPa West 8.9mph /  14.3km/h 14mph /  22.5km/h 89% 0in /  0.0mm 0.00 W/m2